sensor_id;sensor_type;location;lat;lon;timestamp;P1;durP1;ratioP1;P2;durP2;ratioP2
75823;SDS011;64457;51.976;9.834;2022-11-14T00:00:59;57.27;;;22.50;;
75823;SDS011;64457;51.976;9.834;2022-11-14T00:03:32;55.90;;;22.83;;
75823;SDS011;64457;51.976;9.834;2022-11-14T00:06:03;52.03;;;21.40;;
75823;SDS011;64457;51.976;9.834;2022-11-14T00:08:33;55.87;;;21.43;;
75823;SDS011;64457;51.976;9.834;2022-11-14T00:11:01;56.37;;;23.37;;
75823;SDS011;64457;51.976;9.834;2022-11-14T00:13:29;52.60;;;21.57;;
75823;SDS011;64457;51.976;9.834;2022-11-14T00:15:57;61.03;;;23.90;;
75823;SDS011;64457;51.976;9.834;2022-11-14T00:18:24;55.70;;;23.03;;
75823;SDS011;64457;51.976;9.834;2022-11-14T00:20:54;58.50;;;23.40;;
75823;SDS011;64457;51.976;9.834;2022-11-14T00:23:21;58.83;;;23.63;;
75823;SDS011;64457;51.976;9.834;2022-11-14T00:25:50;57.40;;;22.90;;
75823;SDS011;64457;51.976;9.834;2022-11-14T00:28:17;54.77;;;22.27;;
75823;SDS011;64457;51.976;9.834;2022-11-14T00:30:45;56.17;;;23.00;;
75823;SDS011;64457;51.976;9.834;2022-11-14T00:33:13;62.17;;;22.80;;
75823;SDS011;64457;51.976;9.834;2022-11-14T00:35:48;61.30;;;24.70;;
75823;SDS011;64457;51.976;9.834;2022-11-14T00:38:18;58.83;;;23.17;;
75823;SDS011;64457;51.976;9.834;2022-11-14T00:40:46;50.73;;;20.90;;
75823;SDS011;64457;51.976;9.834;2022-11-14T00:43:15;52.50;;;22.20;;
75823;SDS011;64457;51.976;9.834;2022-11-14T00:45:42;57.53;;;23.90;;
75823;SDS011;64457;51.976;9.834;2022-11-14T00:48:11;53.03;;;22.03;;
75823;SDS011;64457;51.976;9.834;2022-11-14T00:50:39;59.53;;;24.27;;
75823;SDS011;64457;51.976;9.834;2022-11-14T00:53:08;53.37;;;22.10;;
75823;SDS011;64457;51.976;9.834;2022-11-14T00:55:36;57.30;;;23.37;;
75823;SDS011;64457;51.976;9.834;2022-11-14T00:58:03;59.13;;;22.97;;
75823;SDS011;64457;51.976;9.834;2022-11-14T01:00:32;59.63;;;22.50;;
75823;SDS011;64457;51.976;9.834;2022-11-14T01:03:02;61.67;;;22.97;;
75823;SDS011;64457;51.976;9.834;2022-11-14T01:05:30;59.83;;;22.17;;
75823;SDS011;64457;51.976;9.834;2022-11-14T01:07:57;54.37;;;21.67;;
75823;SDS011;64457;51.976;9.834;2022-11-14T01:10:25;54.60;;;21.03;;
75823;SDS011;64457;51.976;9.834;2022-11-14T01:12:53;51.27;;;20.80;;
75823;SDS011;64457;51.976;9.834;2022-11-14T01:15:21;57.93;;;22.57;;
75823;SDS011;64457;51.976;9.834;2022-11-14T01:17:51;56.33;;;21.03;;
75823;SDS011;64457;51.976;9.834;2022-11-14T01:20:18;53.33;;;22.20;;
75823;SDS011;64457;51.976;9.834;2022-11-14T01:22:46;51.57;;;21.77;;
75823;SDS011;64457;51.976;9.834;2022-11-14T01:25:13;53.30;;;20.60;;
75823;SDS011;64457;51.976;9.834;2022-11-14T01:27:41;45.97;;;19.33;;
75823;SDS011;64457;51.976;9.834;2022-11-14T01:30:09;49.33;;;20.33;;
75823;SDS011;64457;51.976;9.834;2022-11-14T01:32:38;49.70;;;20.03;;
75823;SDS011;64457;51.976;9.834;2022-11-14T01:35:08;50.00;;;20.80;;
75823;SDS011;64457;51.976;9.834;2022-11-14T01:37:35;51.87;;;19.63;;
75823;SDS011;64457;51.976;9.834;2022-11-14T01:40:03;57.13;;;20.50;;
75823;SDS011;64457;51.976;9.834;2022-11-14T01:42:33;53.67;;;21.93;;
75823;SDS011;64457;51.976;9.834;2022-11-14T01:45:00;50.63;;;20.57;;
75823;SDS011;64457;51.976;9.834;2022-11-14T01:48:11;50.73;;;22.23;;
75823;SDS011;64457;51.976;9.834;2022-11-14T01:50:51;58.57;;;20.60;;
75823;SDS011;64457;51.976;9.834;2022-11-14T01:53:22;55.80;;;22.77;;
75823;SDS011;64457;51.976;9.834;2022-11-14T01:55:51;54.30;;;22.33;;
75823;SDS011;64457;51.976;9.834;2022-11-14T01:58:22;54.47;;;22.77;;
75823;SDS011;64457;51.976;9.834;2022-11-14T02:00:50;57.13;;;23.00;;
75823;SDS011;64457;51.976;9.834;2022-11-14T02:03:17;50.37;;;20.27;;
75823;SDS011;64457;51.976;9.834;2022-11-14T02:05:45;48.70;;;21.50;;
75823;SDS011;64457;51.976;9.834;2022-11-14T02:08:18;50.97;;;20.80;;
75823;SDS011;64457;51.976;9.834;2022-11-14T02:10:47;55.40;;;22.80;;
75823;SDS011;64457;51.976;9.834;2022-11-14T02:13:15;55.40;;;21.77;;
75823;SDS011;64457;51.976;9.834;2022-11-14T02:15:43;55.80;;;23.33;;
75823;SDS011;64457;51.976;9.834;2022-11-14T02:18:11;50.00;;;22.10;;
75823;SDS011;64457;51.976;9.834;2022-11-14T02:20:40;56.27;;;23.23;;
75823;SDS011;64457;51.976;9.834;2022-11-14T02:23:09;54.20;;;22.60;;
75823;SDS011;64457;51.976;9.834;2022-11-14T02:25:42;62.03;;;22.83;;
75823;SDS011;64457;51.976;9.834;2022-11-14T02:28:10;58.57;;;23.27;;
75823;SDS011;64457;51.976;9.834;2022-11-14T02:30:38;49.63;;;22.30;;
75823;SDS011;64457;51.976;9.834;2022-11-14T02:33:06;53.87;;;21.67;;
75823;SDS011;64457;51.976;9.834;2022-11-14T02:35:33;50.00;;;20.70;;
75823;SDS011;64457;51.976;9.834;2022-11-14T02:38:02;58.27;;;23.77;;
75823;SDS011;64457;51.976;9.834;2022-11-14T02:40:31;61.07;;;24.20;;
75823;SDS011;64457;51.976;9.834;2022-11-14T02:42:58;55.73;;;22.80;;
75823;SDS011;64457;51.976;9.834;2022-11-14T02:45:26;57.80;;;22.23;;
75823;SDS011;64457;51.976;9.834;2022-11-14T02:47:53;59.93;;;22.97;;
75823;SDS011;64457;51.976;9.834;2022-11-14T02:50:22;55.97;;;23.20;;
75823;SDS011;64457;51.976;9.834;2022-11-14T02:52:50;57.53;;;22.57;;
75823;SDS011;64457;51.976;9.834;2022-11-14T02:55:20;56.63;;;23.27;;
75823;SDS011;64457;51.976;9.834;2022-11-14T02:57:48;57.10;;;20.97;;
75823;SDS011;64457;51.976;9.834;2022-11-14T03:00:16;57.30;;;21.97;;
75823;SDS011;64457;51.976;9.834;2022-11-14T03:02:45;57.23;;;22.50;;
75823;SDS011;64457;51.976;9.834;2022-11-14T03:05:13;51.43;;;21.67;;
75823;SDS011;64457;51.976;9.834;2022-11-14T03:07:41;58.67;;;23.03;;
75823;SDS011;64457;51.976;9.834;2022-11-14T03:10:09;58.20;;;22.83;;
75823;SDS011;64457;51.976;9.834;2022-11-14T03:12:39;57.90;;;23.37;;
75823;SDS011;64457;51.976;9.834;2022-11-14T03:15:07;55.57;;;21.07;;
75823;SDS011;64457;51.976;9.834;2022-11-14T03:17:36;52.57;;;21.17;;
75823;SDS011;64457;51.976;9.834;2022-11-14T03:20:04;56.87;;;22.87;;
75823;SDS011;64457;51.976;9.834;2022-11-14T03:22:33;57.07;;;22.20;;
75823;SDS011;64457;51.976;9.834;2022-11-14T03:25:01;48.83;;;20.50;;
75823;SDS011;64457;51.976;9.834;2022-11-14T03:27:30;54.13;;;22.80;;
75823;SDS011;64457;51.976;9.834;2022-11-14T03:29:59;54.27;;;21.40;;
75823;SDS011;64457;51.976;9.834;2022-11-14T03:32:28;54.40;;;20.63;;
75823;SDS011;64457;51.976;9.834;2022-11-14T03:34:55;50.80;;;21.23;;
75823;SDS011;64457;51.976;9.834;2022-11-14T03:37:23;50.47;;;21.40;;
75823;SDS011;64457;51.976;9.834;2022-11-14T03:39:51;55.60;;;21.90;;
75823;SDS011;64457;51.976;9.834;2022-11-14T03:42:18;56.00;;;22.57;;
75823;SDS011;64457;51.976;9.834;2022-11-14T03:44:46;46.63;;;20.60;;
75823;SDS011;64457;51.976;9.834;2022-11-14T03:47:15;48.83;;;20.80;;
75823;SDS011;64457;51.976;9.834;2022-11-14T03:49:42;51.97;;;20.87;;
75823;SDS011;64457;51.976;9.834;2022-11-14T03:52:10;48.97;;;20.10;;
75823;SDS011;64457;51.976;9.834;2022-11-14T03:54:38;53.60;;;20.77;;
75823;SDS011;64457;51.976;9.834;2022-11-14T03:57:05;55.83;;;20.93;;
75823;SDS011;64457;51.976;9.834;2022-11-14T03:59:33;47.00;;;19.73;;
75823;SDS011;64457;51.976;9.834;2022-11-14T04:02:00;54.87;;;22.63;;
75823;SDS011;64457;51.976;9.834;2022-11-14T04:04:31;55.23;;;21.27;;
75823;SDS011;64457;51.976;9.834;2022-11-14T04:06:58;56.60;;;21.90;;
75823;SDS011;64457;51.976;9.834;2022-11-14T04:09:25;48.47;;;19.30;;
75823;SDS011;64457;51.976;9.834;2022-11-14T04:11:53;52.27;;;20.30;;
75823;SDS011;64457;51.976;9.834;2022-11-14T04:14:21;51.80;;;20.60;;
75823;SDS011;64457;51.976;9.834;2022-11-14T04:16:49;53.47;;;19.80;;
75823;SDS011;64457;51.976;9.834;2022-11-14T04:19:17;46.27;;;18.70;;
75823;SDS011;64457;51.976;9.834;2022-11-14T04:21:46;49.07;;;19.43;;
75823;SDS011;64457;51.976;9.834;2022-11-14T04:24:13;47.00;;;19.27;;
75823;SDS011;64457;51.976;9.834;2022-11-14T04:26:41;48.03;;;19.17;;
75823;SDS011;64457;51.976;9.834;2022-11-14T04:29:09;47.80;;;18.97;;
75823;SDS011;64457;51.976;9.834;2022-11-14T04:31:37;40.77;;;16.53;;
75823;SDS011;64457;51.976;9.834;2022-11-14T04:34:05;50.00;;;18.80;;
75823;SDS011;64457;51.976;9.834;2022-11-14T04:36:32;44.20;;;17.60;;
75823;SDS011;64457;51.976;9.834;2022-11-14T04:39:01;46.50;;;18.30;;
75823;SDS011;64457;51.976;9.834;2022-11-14T04:41:29;43.87;;;17.90;;
75823;SDS011;64457;51.976;9.834;2022-11-14T04:43:57;46.37;;;18.10;;
75823;SDS011;64457;51.976;9.834;2022-11-14T04:46:24;42.63;;;16.70;;
75823;SDS011;64457;51.976;9.834;2022-11-14T04:48:54;46.17;;;16.37;;
75823;SDS011;64457;51.976;9.834;2022-11-14T04:51:25;41.30;;;16.83;;
75823;SDS011;64457;51.976;9.834;2022-11-14T04:53:53;45.13;;;17.20;;
75823;SDS011;64457;51.976;9.834;2022-11-14T04:56:22;46.03;;;18.70;;
75823;SDS011;64457;51.976;9.834;2022-11-14T04:58:49;44.87;;;18.13;;
75823;SDS011;64457;51.976;9.834;2022-11-14T05:01:17;46.73;;;19.10;;
75823;SDS011;64457;51.976;9.834;2022-11-14T05:03:44;53.93;;;19.10;;
75823;SDS011;64457;51.976;9.834;2022-11-14T05:06:12;43.30;;;17.07;;
75823;SDS011;64457;51.976;9.834;2022-11-14T05:08:40;40.60;;;17.50;;
75823;SDS011;64457;51.976;9.834;2022-11-14T05:11:11;43.67;;;17.50;;
75823;SDS011;64457;51.976;9.834;2022-11-14T05:13:42;45.10;;;18.30;;
75823;SDS011;64457;51.976;9.834;2022-11-14T05:16:10;44.07;;;18.30;;
75823;SDS011;64457;51.976;9.834;2022-11-14T05:18:38;44.10;;;18.43;;
75823;SDS011;64457;51.976;9.834;2022-11-14T05:21:06;45.07;;;19.60;;
75823;SDS011;64457;51.976;9.834;2022-11-14T05:23:36;47.43;;;18.03;;
75823;SDS011;64457;51.976;9.834;2022-11-14T05:26:05;40.30;;;16.60;;
75823;SDS011;64457;51.976;9.834;2022-11-14T05:28:35;43.43;;;17.63;;
75823;SDS011;64457;51.976;9.834;2022-11-14T05:31:06;39.20;;;16.93;;
75823;SDS011;64457;51.976;9.834;2022-11-14T05:33:35;42.50;;;17.07;;
75823;SDS011;64457;51.976;9.834;2022-11-14T05:36:03;36.23;;;15.27;;
75823;SDS011;64457;51.976;9.834;2022-11-14T05:38:33;47.17;;;18.10;;
75823;SDS011;64457;51.976;9.834;2022-11-14T05:41:03;39.07;;;17.40;;
75823;SDS011;64457;51.976;9.834;2022-11-14T05:43:31;35.43;;;15.80;;
75823;SDS011;64457;51.976;9.834;2022-11-14T05:46:00;45.43;;;17.20;;
75823;SDS011;64457;51.976;9.834;2022-11-14T05:48:30;43.00;;;17.40;;
75823;SDS011;64457;51.976;9.834;2022-11-14T05:50:59;38.57;;;16.40;;
75823;SDS011;64457;51.976;9.834;2022-11-14T05:53:28;41.67;;;17.37;;
75823;SDS011;64457;51.976;9.834;2022-11-14T05:55:59;43.43;;;17.90;;
75823;SDS011;64457;51.976;9.834;2022-11-14T05:58:27;41.00;;;16.70;;
75823;SDS011;64457;51.976;9.834;2022-11-14T06:01:00;41.57;;;17.77;;
75823;SDS011;64457;51.976;9.834;2022-11-14T06:03:32;44.20;;;17.83;;
75823;SDS011;64457;51.976;9.834;2022-11-14T06:06:02;39.47;;;17.00;;
75823;SDS011;64457;51.976;9.834;2022-11-14T06:08:31;37.03;;;16.67;;
75823;SDS011;64457;51.976;9.834;2022-11-14T06:11:01;37.60;;;16.73;;
75823;SDS011;64457;51.976;9.834;2022-11-14T06:13:30;35.17;;;14.67;;
75823;SDS011;64457;51.976;9.834;2022-11-14T06:15:58;33.43;;;15.20;;
75823;SDS011;64457;51.976;9.834;2022-11-14T06:18:27;36.73;;;16.20;;
75823;SDS011;64457;51.976;9.834;2022-11-14T06:20:59;35.50;;;15.60;;
75823;SDS011;64457;51.976;9.834;2022-11-14T06:23:27;35.87;;;15.80;;
75823;SDS011;64457;51.976;9.834;2022-11-14T06:25:59;33.30;;;15.23;;
75823;SDS011;64457;51.976;9.834;2022-11-14T06:28:27;34.43;;;14.43;;
75823;SDS011;64457;51.976;9.834;2022-11-14T06:30:56;34.03;;;14.57;;
75823;SDS011;64457;51.976;9.834;2022-11-14T06:33:24;31.23;;;15.27;;
75823;SDS011;64457;51.976;9.834;2022-11-14T06:35:56;36.90;;;15.47;;
75823;SDS011;64457;51.976;9.834;2022-11-14T06:38:26;36.80;;;15.60;;
75823;SDS011;64457;51.976;9.834;2022-11-14T06:41:00;35.60;;;15.60;;
75823;SDS011;64457;51.976;9.834;2022-11-14T06:43:31;38.43;;;15.50;;
75823;SDS011;64457;51.976;9.834;2022-11-14T06:45:59;35.83;;;15.13;;
75823;SDS011;64457;51.976;9.834;2022-11-14T06:48:27;36.47;;;16.80;;
75823;SDS011;64457;51.976;9.834;2022-11-14T06:50:56;39.43;;;16.77;;
75823;SDS011;64457;51.976;9.834;2022-11-14T06:53:27;37.17;;;15.60;;
75823;SDS011;64457;51.976;9.834;2022-11-14T06:55:57;36.70;;;15.60;;
75823;SDS011;64457;51.976;9.834;2022-11-14T06:58:26;40.50;;;16.40;;
75823;SDS011;64457;51.976;9.834;2022-11-14T07:00:54;40.77;;;16.40;;
75823;SDS011;64457;51.976;9.834;2022-11-14T07:03:22;36.20;;;15.57;;
75823;SDS011;64457;51.976;9.834;2022-11-14T07:05:49;38.80;;;16.77;;
75823;SDS011;64457;51.976;9.834;2022-11-14T07:08:17;37.17;;;15.40;;
75823;SDS011;64457;51.976;9.834;2022-11-14T07:10:47;40.17;;;16.90;;
75823;SDS011;64457;51.976;9.834;2022-11-14T07:13:15;39.40;;;17.43;;
75823;SDS011;64457;51.976;9.834;2022-11-14T07:15:48;38.63;;;16.53;;
75823;SDS011;64457;51.976;9.834;2022-11-14T07:18:17;44.33;;;17.67;;
75823;SDS011;64457;51.976;9.834;2022-11-14T07:20:45;39.43;;;16.20;;
75823;SDS011;64457;51.976;9.834;2022-11-14T07:23:13;35.27;;;14.77;;
75823;SDS011;64457;51.976;9.834;2022-11-14T07:25:40;33.73;;;15.80;;
75823;SDS011;64457;51.976;9.834;2022-11-14T07:28:09;34.40;;;16.17;;
75823;SDS011;64457;51.976;9.834;2022-11-14T07:30:37;32.90;;;15.90;;
75823;SDS011;64457;51.976;9.834;2022-11-14T07:33:04;36.50;;;15.73;;
75823;SDS011;64457;51.976;9.834;2022-11-14T07:35:32;35.80;;;15.50;;
75823;SDS011;64457;51.976;9.834;2022-11-14T07:38:00;34.57;;;15.80;;
75823;SDS011;64457;51.976;9.834;2022-11-14T07:40:29;31.73;;;14.77;;
75823;SDS011;64457;51.976;9.834;2022-11-14T07:42:57;30.57;;;13.37;;
75823;SDS011;64457;51.976;9.834;2022-11-14T07:45:27;30.30;;;13.73;;
75823;SDS011;64457;51.976;9.834;2022-11-14T07:47:55;35.63;;;15.83;;
75823;SDS011;64457;51.976;9.834;2022-11-14T07:50:23;31.53;;;14.70;;
75823;SDS011;64457;51.976;9.834;2022-11-14T07:52:51;34.10;;;14.80;;
75823;SDS011;64457;51.976;9.834;2022-11-14T07:55:21;31.13;;;14.43;;
75823;SDS011;64457;51.976;9.834;2022-11-14T07:57:51;35.10;;;15.97;;
75823;SDS011;64457;51.976;9.834;2022-11-14T08:00:20;36.53;;;17.27;;
75823;SDS011;64457;51.976;9.834;2022-11-14T08:02:49;35.50;;;17.23;;
75823;SDS011;64457;51.976;9.834;2022-11-14T08:05:16;32.53;;;15.50;;
75823;SDS011;64457;51.976;9.834;2022-11-14T08:07:45;33.20;;;15.63;;
75823;SDS011;64457;51.976;9.834;2022-11-14T08:10:13;35.50;;;16.90;;
75823;SDS011;64457;51.976;9.834;2022-11-14T08:12:42;38.07;;;15.93;;
75823;SDS011;64457;51.976;9.834;2022-11-14T08:15:10;39.13;;;18.20;;
75823;SDS011;64457;51.976;9.834;2022-11-14T08:17:39;32.23;;;15.50;;
75823;SDS011;64457;51.976;9.834;2022-11-14T08:20:10;34.03;;;15.10;;
75823;SDS011;64457;51.976;9.834;2022-11-14T08:22:37;38.70;;;16.60;;
75823;SDS011;64457;51.976;9.834;2022-11-14T08:25:05;37.33;;;16.47;;
75823;SDS011;64457;51.976;9.834;2022-11-14T08:27:34;37.33;;;16.90;;
75823;SDS011;64457;51.976;9.834;2022-11-14T08:30:02;34.87;;;16.90;;
75823;SDS011;64457;51.976;9.834;2022-11-14T08:32:31;33.00;;;15.47;;
75823;SDS011;64457;51.976;9.834;2022-11-14T08:34:59;34.67;;;16.47;;
75823;SDS011;64457;51.976;9.834;2022-11-14T08:37:28;34.13;;;17.13;;
75823;SDS011;64457;51.976;9.834;2022-11-14T08:39:56;34.27;;;16.50;;
75823;SDS011;64457;51.976;9.834;2022-11-14T08:42:24;34.37;;;16.00;;
75823;SDS011;64457;51.976;9.834;2022-11-14T08:44:51;30.67;;;15.40;;
75823;SDS011;64457;51.976;9.834;2022-11-14T08:47:19;30.07;;;14.30;;
75823;SDS011;64457;51.976;9.834;2022-11-14T08:49:46;31.67;;;14.90;;
75823;SDS011;64457;51.976;9.834;2022-11-14T08:52:15;30.77;;;15.00;;
75823;SDS011;64457;51.976;9.834;2022-11-14T08:54:44;33.47;;;15.43;;
75823;SDS011;64457;51.976;9.834;2022-11-14T08:57:13;31.00;;;14.63;;
75823;SDS011;64457;51.976;9.834;2022-11-14T08:59:41;30.97;;;15.20;;
75823;SDS011;64457;51.976;9.834;2022-11-14T09:02:09;27.97;;;13.77;;
75823;SDS011;64457;51.976;9.834;2022-11-14T09:04:37;30.97;;;13.97;;
75823;SDS011;64457;51.976;9.834;2022-11-14T09:07:06;28.83;;;14.03;;
75823;SDS011;64457;51.976;9.834;2022-11-14T09:09:34;32.43;;;14.07;;
75823;SDS011;64457;51.976;9.834;2022-11-14T09:12:03;31.53;;;13.90;;
75823;SDS011;64457;51.976;9.834;2022-11-14T09:14:32;30.77;;;14.77;;
75823;SDS011;64457;51.976;9.834;2022-11-14T09:17:00;28.47;;;13.57;;
75823;SDS011;64457;51.976;9.834;2022-11-14T09:19:28;26.70;;;14.20;;
75823;SDS011;64457;51.976;9.834;2022-11-14T09:21:55;29.03;;;12.83;;
75823;SDS011;64457;51.976;9.834;2022-11-14T09:24:23;27.90;;;13.43;;
75823;SDS011;64457;51.976;9.834;2022-11-14T09:26:51;26.57;;;13.30;;
75823;SDS011;64457;51.976;9.834;2022-11-14T09:29:20;27.20;;;13.43;;
75823;SDS011;64457;51.976;9.834;2022-11-14T09:31:48;27.67;;;13.93;;
75823;SDS011;64457;51.976;9.834;2022-11-14T09:34:19;27.80;;;14.33;;
75823;SDS011;64457;51.976;9.834;2022-11-14T09:36:47;25.40;;;12.90;;
75823;SDS011;64457;51.976;9.834;2022-11-14T09:39:15;28.10;;;14.37;;
75823;SDS011;64457;51.976;9.834;2022-11-14T09:41:46;27.90;;;13.23;;
75823;SDS011;64457;51.976;9.834;2022-11-14T09:44:34;24.83;;;12.13;;
75823;SDS011;64457;51.976;9.834;2022-11-14T09:47:15;25.03;;;12.80;;
75823;SDS011;64457;51.976;9.834;2022-11-14T09:49:47;28.87;;;14.10;;
75823;SDS011;64457;51.976;9.834;2022-11-14T09:52:21;26.30;;;13.53;;
75823;SDS011;64457;51.976;9.834;2022-11-14T09:54:59;25.97;;;13.77;;
75823;SDS011;64457;51.976;9.834;2022-11-14T09:57:36;27.23;;;13.60;;
75823;SDS011;64457;51.976;9.834;2022-11-14T10:00:13;27.70;;;14.00;;
75823;SDS011;64457;51.976;9.834;2022-11-14T10:02:50;27.87;;;13.70;;
75823;SDS011;64457;51.976;9.834;2022-11-14T10:05:38;29.63;;;14.33;;
75823;SDS011;64457;51.976;9.834;2022-11-14T10:08:19;28.90;;;14.00;;
75823;SDS011;64457;51.976;9.834;2022-11-14T10:11:11;26.03;;;13.20;;
75823;SDS011;64457;51.976;9.834;2022-11-14T10:13:55;27.20;;;13.70;;
75823;SDS011;64457;51.976;9.834;2022-11-14T10:17:10;28.00;;;14.17;;
75823;SDS011;64457;51.976;9.834;2022-11-14T10:20:00;30.00;;;14.17;;
75823;SDS011;64457;51.976;9.834;2022-11-14T10:22:41;28.97;;;13.80;;
75823;SDS011;64457;51.976;9.834;2022-11-14T10:25:29;28.00;;;13.83;;
75823;SDS011;64457;51.976;9.834;2022-11-14T10:31:18;28.33;;;14.30;;
75823;SDS011;64457;51.976;9.834;2022-11-14T10:33:58;27.93;;;14.70;;
75823;SDS011;64457;51.976;9.834;2022-11-14T10:36:44;29.80;;;13.47;;
75823;SDS011;64457;51.976;9.834;2022-11-14T10:39:21;28.87;;;14.40;;
75823;SDS011;64457;51.976;9.834;2022-11-14T10:41:55;25.63;;;12.57;;
75823;SDS011;64457;51.976;9.834;2022-11-14T10:44:30;24.83;;;12.73;;
75823;SDS011;64457;51.976;9.834;2022-11-14T10:47:03;24.80;;;12.77;;
75823;SDS011;64457;51.976;9.834;2022-11-14T10:49:39;24.53;;;11.87;;
75823;SDS011;64457;51.976;9.834;2022-11-14T10:52:09;23.90;;;12.63;;
75823;SDS011;64457;51.976;9.834;2022-11-14T10:54:41;23.07;;;12.00;;
75823;SDS011;64457;51.976;9.834;2022-11-14T10:57:14;21.80;;;11.80;;
75823;SDS011;64457;51.976;9.834;2022-11-14T10:59:44;20.57;;;11.63;;
75823;SDS011;64457;51.976;9.834;2022-11-14T11:02:12;23.53;;;11.57;;
75823;SDS011;64457;51.976;9.834;2022-11-14T11:04:42;22.77;;;11.90;;
75823;SDS011;64457;51.976;9.834;2022-11-14T11:07:18;21.70;;;10.97;;
75823;SDS011;64457;51.976;9.834;2022-11-14T11:10:10;22.33;;;11.83;;
75823;SDS011;64457;51.976;9.834;2022-11-14T11:13:05;22.80;;;11.07;;
75823;SDS011;64457;51.976;9.834;2022-11-14T11:15:40;24.47;;;12.13;;
75823;SDS011;64457;51.976;9.834;2022-11-14T11:18:22;21.77;;;11.60;;
75823;SDS011;64457;51.976;9.834;2022-11-14T11:21:02;21.50;;;10.80;;
75823;SDS011;64457;51.976;9.834;2022-11-14T11:23:32;22.00;;;10.60;;
75823;SDS011;64457;51.976;9.834;2022-11-14T11:26:01;19.17;;;9.90;;
75823;SDS011;64457;51.976;9.834;2022-11-14T11:28:33;22.80;;;11.57;;
75823;SDS011;64457;51.976;9.834;2022-11-14T11:31:04;18.97;;;9.93;;
75823;SDS011;64457;51.976;9.834;2022-11-14T11:33:33;19.23;;;10.57;;
75823;SDS011;64457;51.976;9.834;2022-11-14T11:36:05;20.50;;;10.43;;
75823;SDS011;64457;51.976;9.834;2022-11-14T11:38:38;20.60;;;10.17;;
75823;SDS011;64457;51.976;9.834;2022-11-14T11:41:11;20.60;;;11.10;;
75823;SDS011;64457;51.976;9.834;2022-11-14T11:43:53;20.67;;;11.27;;
75823;SDS011;64457;51.976;9.834;2022-11-14T11:46:25;20.57;;;10.27;;
75823;SDS011;64457;51.976;9.834;2022-11-14T11:49:06;20.10;;;10.60;;
75823;SDS011;64457;51.976;9.834;2022-11-14T11:51:43;20.03;;;10.67;;
75823;SDS011;64457;51.976;9.834;2022-11-14T11:54:12;20.47;;;10.63;;
75823;SDS011;64457;51.976;9.834;2022-11-14T11:56:43;19.00;;;9.60;;
75823;SDS011;64457;51.976;9.834;2022-11-14T11:59:20;18.63;;;9.80;;
75823;SDS011;64457;51.976;9.834;2022-11-14T12:01:58;22.17;;;11.23;;
75823;SDS011;64457;51.976;9.834;2022-11-14T12:04:26;21.70;;;10.87;;
75823;SDS011;64457;51.976;9.834;2022-11-14T12:06:57;21.13;;;11.07;;
75823;SDS011;64457;51.976;9.834;2022-11-14T12:09:37;20.60;;;10.93;;
75823;SDS011;64457;51.976;9.834;2022-11-14T12:12:07;20.30;;;10.30;;
75823;SDS011;64457;51.976;9.834;2022-11-14T12:14:46;20.03;;;11.00;;
75823;SDS011;64457;51.976;9.834;2022-11-14T12:20:49;19.70;;;10.57;;
75823;SDS011;64457;51.976;9.834;2022-11-14T12:23:44;19.13;;;9.80;;
75823;SDS011;64457;51.976;9.834;2022-11-14T12:26:52;21.27;;;10.20;;
75823;SDS011;64457;51.976;9.834;2022-11-14T12:29:45;19.97;;;10.53;;
75823;SDS011;64457;51.976;9.834;2022-11-14T12:32:29;19.83;;;10.50;;
75823;SDS011;64457;51.976;9.834;2022-11-14T12:34:59;17.87;;;9.60;;
75823;SDS011;64457;51.976;9.834;2022-11-14T12:37:32;19.70;;;10.13;;
75823;SDS011;64457;51.976;9.834;2022-11-14T12:40:04;20.03;;;9.43;;
75823;SDS011;64457;51.976;9.834;2022-11-14T12:42:46;18.00;;;9.70;;
75823;SDS011;64457;51.976;9.834;2022-11-14T12:48:31;20.33;;;11.07;;
75823;SDS011;64457;51.976;9.834;2022-11-14T12:51:05;24.23;;;10.30;;
75823;SDS011;64457;51.976;9.834;2022-11-14T12:54:08;19.60;;;10.43;;
75823;SDS011;64457;51.976;9.834;2022-11-14T12:57:14;19.10;;;10.33;;
75823;SDS011;64457;51.976;9.834;2022-11-14T13:00:06;20.33;;;10.83;;
75823;SDS011;64457;51.976;9.834;2022-11-14T13:02:49;20.80;;;10.83;;
75823;SDS011;64457;51.976;9.834;2022-11-14T13:05:47;18.83;;;9.70;;
75823;SDS011;64457;51.976;9.834;2022-11-14T13:08:38;20.17;;;10.83;;
75823;SDS011;64457;51.976;9.834;2022-11-14T13:11:34;18.77;;;10.90;;
75823;SDS011;64457;51.976;9.834;2022-11-14T13:14:25;19.73;;;10.73;;
75823;SDS011;64457;51.976;9.834;2022-11-14T13:17:21;19.13;;;10.43;;
75823;SDS011;64457;51.976;9.834;2022-11-14T13:20:22;19.47;;;10.03;;
75823;SDS011;64457;51.976;9.834;2022-11-14T13:26:39;20.30;;;10.60;;
75823;SDS011;64457;51.976;9.834;2022-11-14T13:35:52;18.43;;;10.10;;
75823;SDS011;64457;51.976;9.834;2022-11-14T13:44:55;20.40;;;11.23;;
75823;SDS011;64457;51.976;9.834;2022-11-14T13:51:14;20.97;;;11.70;;
75823;SDS011;64457;51.976;9.834;2022-11-14T13:53:43;23.03;;;11.10;;
75823;SDS011;64457;51.976;9.834;2022-11-14T13:56:15;20.37;;;11.10;;
75823;SDS011;64457;51.976;9.834;2022-11-14T13:59:03;20.63;;;10.60;;
75823;SDS011;64457;51.976;9.834;2022-11-14T14:02:00;21.20;;;10.90;;
75823;SDS011;64457;51.976;9.834;2022-11-14T14:05:03;20.00;;;10.83;;
75823;SDS011;64457;51.976;9.834;2022-11-14T14:10:41;19.73;;;11.37;;
75823;SDS011;64457;51.976;9.834;2022-11-14T14:13:25;20.73;;;10.70;;
75823;SDS011;64457;51.976;9.834;2022-11-14T14:16:09;20.17;;;10.83;;
75823;SDS011;64457;51.976;9.834;2022-11-14T14:18:50;22.90;;;11.07;;
75823;SDS011;64457;51.976;9.834;2022-11-14T14:21:33;19.10;;;10.30;;
75823;SDS011;64457;51.976;9.834;2022-11-14T14:24:13;20.13;;;9.83;;
75823;SDS011;64457;51.976;9.834;2022-11-14T14:26:58;19.33;;;10.87;;
75823;SDS011;64457;51.976;9.834;2022-11-14T14:29:34;19.50;;;10.10;;
75823;SDS011;64457;51.976;9.834;2022-11-14T14:32:11;21.80;;;11.00;;
75823;SDS011;64457;51.976;9.834;2022-11-14T14:34:43;21.50;;;10.70;;
75823;SDS011;64457;51.976;9.834;2022-11-14T14:37:16;20.90;;;11.10;;
75823;SDS011;64457;51.976;9.834;2022-11-14T14:39:57;21.40;;;10.30;;
75823;SDS011;64457;51.976;9.834;2022-11-14T14:42:27;20.37;;;10.77;;
75823;SDS011;64457;51.976;9.834;2022-11-14T14:45:03;18.17;;;10.10;;
75823;SDS011;64457;51.976;9.834;2022-11-14T14:47:40;20.37;;;10.90;;
75823;SDS011;64457;51.976;9.834;2022-11-14T14:50:14;19.50;;;10.10;;
75823;SDS011;64457;51.976;9.834;2022-11-14T14:52:53;21.27;;;11.17;;
75823;SDS011;64457;51.976;9.834;2022-11-14T14:55:23;20.37;;;10.73;;
75823;SDS011;64457;51.976;9.834;2022-11-14T14:57:53;21.73;;;11.27;;
75823;SDS011;64457;51.976;9.834;2022-11-14T15:00:21;23.73;;;12.10;;
75823;SDS011;64457;51.976;9.834;2022-11-14T15:02:51;23.77;;;11.90;;
75823;SDS011;64457;51.976;9.834;2022-11-14T15:05:23;21.73;;;11.10;;
75823;SDS011;64457;51.976;9.834;2022-11-14T15:07:54;21.07;;;11.17;;
75823;SDS011;64457;51.976;9.834;2022-11-14T15:10:25;22.17;;;11.60;;
75823;SDS011;64457;51.976;9.834;2022-11-14T15:12:55;25.03;;;13.33;;
75823;SDS011;64457;51.976;9.834;2022-11-14T15:15:24;34.93;;;18.40;;
75823;SDS011;64457;51.976;9.834;2022-11-14T15:17:53;28.97;;;14.57;;
75823;SDS011;64457;51.976;9.834;2022-11-14T15:20:25;34.10;;;17.33;;
75823;SDS011;64457;51.976;9.834;2022-11-14T15:23:05;29.80;;;15.40;;